Weather


ICAO METAR
KAPA KAPA 191153Z 30009KT 10SM FEW100 SCT200 06/M07 A2988 RMK AO2 PK WND 34029/1054 SLP107 T00611072 10083 21033 53005
KASE KASE 191218Z 00000KT 3SM -SN BR BKN005 OVC011 M03/M04 A3008 RMK AO2 CIG 003V007 P0000 T10281039
KBJC KBJC 191158Z AUTO 29010KT 10SM CLR 07/M06 A2988 RMK AO2 PWINO
KBKF KBKF 191158Z 26013KT 10SM FEW110 SCT220 07/M07 A2987 RMK AO2A SLP091 T00701074 10086 20000 55000
KCOS KCOS 191154Z 35012KT 10SM FEW150 06/M07 A2989 RMK AO2 SLP110 T00561072 10061 21011 53002
KCPR KCPR 191153Z 27007KT 10SM FEW039 FEW075 SCT110 00/M04 A2988 RMK AO2 SNB04E40 SLP126 P0000 60000 T00001044 10039 20000 53009
KCYS KCYS 191153Z AUTO 28032G38KT 10SM CLR 04/M04 A2981 RMK AO2 PK WND 27038/1153 SLP081 T00391039 10061 20033 56007
KDEN KDEN 191153Z 27017KT 10SM FEW100 FEW200 06/M07 A2984 RMK AO2 SLP082 T00611067 10078 20017 55002
KEGE KEGE 191156Z AUTO 25006KT 10SM OVC055 01/M04 A3008 RMK AO2 SLP205 T00111044 10022 21006 58013 FZRANO
KFCS KFCS 191158Z AUTO 31004KT 10SM CLR 04/M09 A2986 RMK AO2 SLP128 T00441094 10065 21021 55000 $
KFMN KFMN 191153Z AUTO 24009KT 10SM CLR M01/M06 A3012 RMK AO2 SLP203 T10061061 10017 21006 53006
KFTG KFTG 191212Z AUTO 27011KT 10SM CLR 05/M06 A2986 RMK AO2 T00471062
KGCC KGCC 191153Z AUTO 31014KT 10SM CLR 05/M06 A2981 RMK AO2 PK WND 31026/1139 SLP096 60000 7//// T00501056 10067 21006 51009 $
KGJT KGJT 191153Z AUTO 00000KT 10SM CLR M07/M08 A3016 RMK AO2 SLP235 T10671083 11022 21067 58001
KPUB KPUB 191153Z AUTO 03005KT 10SM CLR 06/M07 A2985 RMK AO2 SLP090 T00611067 10078 21017 53002
KRAP KRAP 191152Z AUTO 32018G27KT 10SM FEW120 08/M04 A2971 RMK AO2 PK WND 32027/1123 SLP071 T00831039 10094 20028 53007
KRCA KRCA 191156Z AUTO 32019G27KT 10SM SCT120 08/M03 A2970 RMK AO2 PK WND 32028/05 SLP068 T00801032 10093 20020 53005 $

Surface Data
Click here.

This is a composite map contain the following analyses: radar summary (color filled areas), surface data plot (composite station model), frontal locations (in various bold lines) and pressure contours (in thin blue lines).